100LL.CA
Aviation Fuel Pricing for Canadians
Please upgrade your browser - Tested with IE9, FireFox, Chrome, Safari

Fuel Airports Other Help
Prices Economy Info List METAR/TAF Kneeboard Help

Reference Airport: KINGSTON, ON
N 44 13 34.6755  W 076 35 48.1243
Provinces to show:

CYGK KINGSTON, ON
WEATHER
METARCYGK 131900Z 28015G26KT 15SM -SHRA BKN028 OVC048 07/02 A2962 RMK SC6SC2 CVCTV CLD EMBD SLP035
TAFTAF CYGK 131340Z 1314/1402 26015G25KT P6SM -RA SCT015 OVC025 TEMPO 1314/1321 5SM -RA BR BKN015 OVC025 BECMG 1314/1315 28018G28KT FM132100 29015G25KT P6SM BKN030 BKN080 BECMG 1323/1401 28012KT RMK NXT FCST BY 132000Z
OTHER SITES

FlightAware

FltPlan

Google Maps

SkyVector
FUEL
FBO 100LL
member
100LL
public
JETA MOGAS
Central Airways (2022-06-27)3.1502.840
Canada Flight Supplement - CYGK
(opens in new tab/window)


Please Send Updates!

Desktop Version ]  [ Mobile Version ]  [ Disclaimer ]